Guymon Municipal Airport
KGUY : now visible

Airfield :











YOU CAN JOIN US ON...

 
LOGIN :

Register | Disclaimer

   EN    FR    IT 

 









Legend :    VFR   Marginal VFR   IFR   Intensive IFR   Very Intensive IFR
Visi :
Ceiling :
>= 8 km
>= 3000ft
5 to 8 km
1000 to 3000 ft
1500m to 5 km
500 to 1000 ft
800 to 1500m
200 to 500 ft
< 800m
< 200 ft
Symbols :   Thunderstorms  Fog  Heavy snow  Heavy precipitations  Wind > 20 kt






- Airport Elevation : 3123 ft


KGUY - Guymon Municipal

CURRENT METAR :
  • 220518Z AUTO 03007KT 8SM BKN004 OVC030 00/M01 A3016 RMK AO2 T00001011

EXPIRED METARs :
  • 220453Z AUTO 03006KT 8SM BKN005 BKN026 OVC040 01/M01 A3017 RMK AO2 SNE39 SLP223 P0003 T00061006
  • 220442Z AUTO 05008KT 7SM BKN005 BKN044 OVC060 01/M01 A3017 RMK AO2 SNE39 P0003 T00061006
  • 220425Z AUTO 06010KT 3SM -SN BR FEW004 BKN017 OVC060 01/M01 A3016 RMK AO2 P0002 T00061006
  • 220348Z AUTO 04010KT 1 3/4SM -SN OVC022 01/M02 A3015 RMK AO2 RAB0255E26SNB26 SLP214 P0003 T00111017
  • 220307Z AUTO 05008KT 10SM -RA BKN028 OVC044 03/M03 A3016 RMK AO2 RAB0255 P0000 T00281028
  • 220253Z AUTO 05015KT 10SM BKN030 OVC043 03/M03 A3013 RMK AO2 SLP204 T00331033 53015

TAF KGUY
Valid from the 22 at 06:00 until the 23 at 06:00 UTC


220520Z 2206/2306 02008KT P6SM OVC005
FM221000 VRB03KT 3SM BR OVC003
FM221900 03008KT P6SM OVC015
FM230100 VRB03KT 4SM BR OVC006



MET'MAP, your aeronautical weather chart ! - Copyright ORBIFLY December 2007 - Disclaimer

ORBIFLY MET'MAP TEAM :

Programming & Development : Alexandra Zaïnal
Concept & Development : Baudouin d'Aumeries
Co-Development & Prog : Marc-Olivier Méhu
Technical & hardware support : Manuel Goepfert

Contact : metmap@orbifly.com




SOURCES & CREDITS :

   NOAA       Earth
Advisory